Time;durP1;ratioP1;P1;durP2;ratioP2;P2;SDS_P1;SDS_P2;PMS_P1;PMS_P2;Temp;Humidity;BMP_temperature;BMP_pressure;BME280_temperature;BME280_humidity;BME280_pressure;Samples;Min_cycle;Max_cycle;Signal;HPM_P1;HPM_P2
2021/12/29 00:00:29;;;;;;;74.57;38.38;;;;;;;4.76;58.89;99093.63;5054548;28;20452;-71
2021/12/29 00:02:58;;;;;;;68.78;38.22;;;;;;;4.63;59.66;99101.22;5069102;28;20410;-71
2021/12/29 00:05:25;;;;;;;82.15;39.38;;;;;;;4.33;60.40;99106.06;5074003;28;20044;-70
2021/12/29 00:07:52;;;;;;;76.13;38.55;;;;;;;4.06;61.50;99104.41;5074699;28;20100;-70
2021/12/29 00:10:19;;;;;;;81.38;40.53;;;;;;;4.65;59.88;99101.88;5074746;28;20078;-71
2021/12/29 00:12:50;;;;;;;77.30;41.13;;;;;;;4.53;59.58;99105.84;5074707;28;20194;-71
2021/12/29 00:15:18;;;;;;;90.63;41.85;;;;;;;4.80;59.06;99105.59;5073367;28;20063;-70
2021/12/29 00:17:45;;;;;;;83.60;40.63;;;;;;;4.99;58.42;99106.28;5072960;28;20045;-70
2021/12/29 00:20:17;;;;;;;82.53;40.30;;;;;;;4.95;58.54;99115.56;5073285;28;20139;-71
2021/12/29 00:22:44;;;;;;;82.13;40.40;;;;;;;4.65;59.50;99125.78;5073079;28;20128;-72
2021/12/29 00:25:11;;;;;;;83.30;39.83;;;;;;;4.72;59.27;99125.97;5073215;28;20140;-73
2021/12/29 00:27:38;;;;;;;78.90;39.20;;;;;;;4.48;60.41;99132.03;5073589;28;20075;-71
2021/12/29 00:30:07;;;;;;;84.88;42.20;;;;;;;4.75;59.64;99126.47;5072827;28;20493;-71
2021/12/29 00:32:33;;;;;;;85.47;41.65;;;;;;;4.95;58.66;99129.69;5072747;28;20503;-71
2021/12/29 00:35:00;;;;;;;83.47;40.47;;;;;;;4.82;59.03;99127.50;5072926;28;20070;-71
2021/12/29 00:37:26;;;;;;;77.70;39.72;;;;;;;4.19;60.34;99137.69;5074051;28;20131;-71
2021/12/29 00:39:53;;;;;;;89.63;42.10;;;;;;;4.69;59.58;99137.75;5074060;28;20044;-70
2021/12/29 00:42:20;;;;;;;80.90;39.50;;;;;;;4.98;59.06;99142.66;5073367;28;20115;-70
2021/12/29 00:44:46;;;;;;;93.85;39.95;;;;;;;4.74;60.00;99145.25;5074498;28;20040;-70
2021/12/29 00:47:13;;;;;;;85.65;41.55;;;;;;;5.08;58.83;99150.50;5073683;28;20123;-72
2021/12/29 00:49:41;;;;;;;87.88;41.25;;;;;;;4.49;60.61;99144.34;5073350;28;20036;-70
2021/12/29 00:52:08;;;;;;;85.75;40.72;;;;;;;4.77;59.67;99148.41;5073094;28;20493;-70
2021/12/29 00:54:37;;;;;;;92.25;42.20;;;;;;;4.89;59.35;99159.56;5073157;28;20075;-70
2021/12/29 00:57:04;;;;;;;81.20;39.45;;;;;;;5.14;58.75;99151.66;5073291;28;20036;-70
2021/12/29 00:59:30;;;;;;;83.13;40.45;;;;;;;5.37;57.85;99162.50;5074514;28;20563;-71
2021/12/29 01:01:57;;;;;;;86.40;41.97;;;;;;;5.29;58.29;99160.66;5072330;28;20059;-71
2021/12/29 01:04:24;;;;;;;84.25;40.20;;;;;;;4.56;60.90;99170.09;5065236;28;20046;-70
2021/12/29 01:06:52;;;;;;;80.55;39.42;;;;;;;4.93;59.71;99160.06;5074545;28;20063;-70
2021/12/29 01:09:18;;;;;;;78.93;38.58;;;;;;;4.04;61.99;99175.41;5077281;28;20072;-70
2021/12/29 01:11:46;;;;;;;82.85;39.30;;;;;;;4.59;60.81;99179.56;5077142;28;20048;-72
2021/12/29 01:14:12;;;;;;;83.78;39.72;;;;;;;4.47;60.98;99172.84;5077582;28;20060;-71
2021/12/29 01:16:39;;;;;;;87.75;38.65;;;;;;;4.56;61.22;99178.06;5076629;28;20059;-71
2021/12/29 01:19:16;;;;;;;85.68;39.65;;;;;;;4.75;59.91;99184.09;5077926;28;20071;-71
2021/12/29 01:21:45;;;;;;;87.68;40.58;;;;;;;5.16;58.91;99190.38;5078128;28;20102;-71
2021/12/29 01:24:12;;;;;;;80.18;38.40;;;;;;;5.22;58.91;99189.72;5076697;28;20079;-71
2021/12/29 01:26:42;;;;;;;77.93;38.17;;;;;;;5.35;58.29;99191.06;5076865;28;20136;-70
2021/12/29 01:29:12;;;;;;;82.00;38.42;;;;;;;5.18;58.76;99188.41;5078369;28;20048;-71
2021/12/29 01:31:40;;;;;;;81.05;38.15;;;;;;;4.96;59.57;99196.97;5077655;28;20048;-71
2021/12/29 01:34:07;;;;;;;91.03;40.33;;;;;;;5.08;59.29;99201.00;5076578;28;20477;-71
2021/12/29 01:36:35;;;;;;;82.13;41.28;;;;;;;4.86;60.31;99199.75;5077564;28;20044;-71
2021/12/29 01:39:06;;;;;;;81.72;40.13;;;;;;;5.17;59.22;99204.50;5078005;28;20079;-71
2021/12/29 01:41:33;;;;;;;87.05;40.90;;;;;;;4.88;59.58;99205.75;5069168;28;20544;-71
2021/12/29 01:43:59;;;;;;;83.20;40.20;;;;;;;4.92;59.72;99209.72;5076693;28;20105;-71
2021/12/29 01:46:26;;;;;;;84.70;38.88;;;;;;;5.17;59.26;99205.31;5057993;28;20559;-71
2021/12/29 01:48:53;;;;;;;83.53;39.95;;;;;;;5.39;58.44;99211.03;5076493;28;20040;-71
2021/12/29 01:51:20;;;;;;;82.38;39.25;;;;;;;5.40;58.44;99210.03;5075932;28;20094;-71
2021/12/29 01:56:32;;;;;;;79.63;39.28;;;;;;;5.18;58.78;99217.63;5077990;28;20063;-71
2021/12/29 01:58:58;;;;;;;80.20;39.40;;;;;;;5.14;59.15;99224.25;5077566;28;20516;-71
2021/12/29 02:01:25;;;;;;;85.38;40.72;;;;;;;5.19;58.96;99218.47;5075945;28;20477;-71
2021/12/29 02:03:55;;;;;;;78.78;39.67;;;;;;;5.03;59.54;99221.91;5059397;28;20048;-70
2021/12/29 02:09:48;;;;;;;81.88;38.70;;;;;;;4.46;61.52;99230.44;5077006;28;20127;-72
2021/12/29 02:12:16;;;;;;;80.70;39.78;;;;;;;4.80;60.64;99235.78;5072796;28;20044;-73
2021/12/29 02:14:43;;;;;;;75.57;38.40;;;;;;;4.90;60.22;99240.97;5058144;28;20071;-73
2021/12/29 02:17:12;;;;;;;78.80;39.17;;;;;;;4.68;61.17;99237.03;5074201;28;20109;-72
2021/12/29 02:19:45;;;;;;;79.10;39.72;;;;;;;4.82;60.79;99239.09;5054877;28;20073;-72
2021/12/29 02:25:05;;;;;;;74.18;38.40;;;;;;;5.34;59.11;99242.59;5055766;28;20132;-73
2021/12/29 02:27:32;;;;;;;82.70;38.58;;;;;;;4.94;59.75;99246.78;5055931;28;20529;-72
2021/12/29 02:29:59;;;;;;;79.45;38.55;;;;;;;4.99;60.07;99255.94;5061067;28;20131;-71
2021/12/29 02:32:26;;;;;;;77.13;37.45;;;;;;;4.82;60.60;99255.03;5074142;28;20052;-73
2021/12/29 02:34:53;;;;;;;78.75;38.10;;;;;;;5.39;58.66;99262.41;5075988;28;20461;-72
2021/12/29 02:37:22;;;;;;;77.32;38.08;;;;;;;5.49;58.55;99265.75;5075501;28;20523;-72
2021/12/29 02:39:51;;;;;;;74.50;36.92;;;;;;;5.75;57.89;99272.75;5076069;28;20052;-72
2021/12/29 02:42:22;;;;;;;72.80;37.47;;;;;;;5.63;58.05;99272.25;5076586;28;20071;-72
2021/12/29 02:44:49;;;;;;;74.82;37.67;;;;;;;5.80;57.45;99269.59;5076898;28;20128;-72
2021/12/29 02:47:16;;;;;;;71.45;37.00;;;;;;;5.74;57.60;99273.75;5076250;28;20472;-72
2021/12/29 02:49:42;;;;;;;75.15;36.55;;;;;;;5.83;57.28;99277.25;5075926;28;20068;-72
2021/12/29 02:52:10;;;;;;;71.93;35.88;;;;;;;5.91;56.91;99274.63;5075646;28;20064;-72
2021/12/29 02:54:37;;;;;;;62.88;33.97;;;;;;;5.98;56.90;99283.59;5075781;28;20091;-72
2021/12/29 02:57:04;;;;;;;62.53;33.83;;;;;;;6.07;56.43;99284.44;5077801;28;20056;-72
2021/12/29 02:59:30;;;;;;;69.88;33.95;;;;;;;5.96;56.61;99288.25;5075422;28;20082;-72
2021/12/29 03:01:57;;;;;;;64.88;34.58;;;;;;;5.83;57.17;99290.56;5077900;28;20437;-72
2021/12/29 03:04:24;;;;;;;65.25;32.85;;;;;;;5.93;57.13;99281.41;5076492;28;20529;-72
2021/12/29 03:06:52;;;;;;;67.57;33.03;;;;;;;6.00;56.76;99301.06;5075479;28;20052;-72
2021/12/29 03:09:19;;;;;;;64.95;33.45;;;;;;;5.96;57.06;99301.56;5076217;28;20523;-72
2021/12/29 03:11:47;;;;;;;62.25;31.00;;;;;;;6.02;56.85;99295.59;5073726;28;20084;-72
2021/12/29 03:14:14;;;;;;;71.63;32.28;;;;;;;5.85;57.62;99294.72;5075287;28;20051;-72
2021/12/29 03:16:41;;;;;;;60.25;30.55;;;;;;;6.01;57.12;99293.94;5074953;28;20208;-71
2021/12/29 03:19:07;;;;;;;64.93;31.50;;;;;;;6.04;57.20;99287.41;5073919;28;20040;-71
2021/12/29 03:21:35;;;;;;;67.28;31.50;;;;;;;5.95;57.50;99297.25;5076272;28;20104;-71
2021/12/29 03:24:03;;;;;;;64.78;30.48;;;;;;;6.06;57.35;99298.75;5075804;28;20075;-71
2021/12/29 03:26:30;;;;;;;63.63;30.10;;;;;;;5.95;57.78;99291.91;5075626;28;20130;-71
2021/12/29 03:28:57;;;;;;;59.03;28.30;;;;;;;6.08;57.28;99300.25;5073448;28;20170;-72
2021/12/29 03:31:25;;;;;;;60.90;29.85;;;;;;;6.13;57.17;99292.59;5074594;28;20553;-72
2021/12/29 03:33:52;;;;;;;66.80;29.17;;;;;;;5.98;57.85;99289.75;5072482;28;20423;-72
2021/12/29 03:36:19;;;;;;;61.97;30.15;;;;;;;6.03;57.93;99304.41;5075772;28;20075;-71
2021/12/29 03:38:46;;;;;;;69.45;29.40;;;;;;;6.08;57.51;99305.56;5076289;28;20064;-71
2021/12/29 03:41:15;;;;;;;72.85;30.75;;;;;;;6.10;57.55;99306.22;5073777;28;20552;-71
2021/12/29 03:43:43;;;;;;;62.15;29.73;;;;;;;5.98;57.68;99310.22;5075283;28;20135;-71
2021/12/29 03:46:10;;;;;;;56.80;28.20;;;;;;;5.88;58.39;99310.38;5074285;28;20537;-71
2021/12/29 03:48:40;;;;;;;64.43;28.38;;;;;;;5.66;58.79;99311.81;5075196;28;20040;-71
2021/12/29 03:51:08;;;;;;;61.72;30.48;;;;;;;5.73;58.38;99318.19;5075552;28;20045;-71
2021/12/29 03:53:36;;;;;;;63.88;32.13;;;;;;;5.85;58.14;99318.69;5076093;28;20086;-71
2021/12/29 03:56:03;;;;;;;63.58;32.40;;;;;;;5.98;57.88;99321.69;5072655;28;20045;-71
2021/12/29 03:58:30;;;;;;;60.92;31.08;;;;;;;6.06;57.42;99322.69;5074240;28;20536;-71
2021/12/29 04:01:01;;;;;;;56.63;30.23;;;;;;;6.03;57.30;99318.53;5055815;28;20100;-72
2021/12/29 04:03:28;;;;;;;60.72;32.15;;;;;;;5.84;57.89;99329.50;5073517;28;20059;-72
2021/12/29 04:05:54;;;;;;;61.67;30.40;;;;;;;5.90;57.59;99329.66;5074418;28;20075;-72
2021/12/29 04:08:20;;;;;;;63.42;32.03;;;;;;;5.58;58.51;99325.09;5072637;28;20079;-71
2021/12/29 04:10:47;;;;;;;68.90;33.20;;;;;;;5.73;58.48;99326.16;5056229;28;20071;-71
2021/12/29 04:13:14;;;;;;;66.88;32.38;;;;;;;5.98;57.61;99339.50;5073577;28;20128;-71
2021/12/29 04:15:41;;;;;;;57.05;31.00;;;;;;;5.98;57.31;99348.31;5073963;28;20131;-71
2021/12/29 04:18:26;;;;;;;66.13;33.42;;;;;;;6.03;57.20;99355.81;5074016;28;20044;-71
2021/12/29 04:21:03;;;;;;;62.00;32.45;;;;;;;6.14;56.78;99379.44;5074433;28;20040;-71
2021/12/29 04:23:32;;;;;;;58.25;31.10;;;;;;;6.18;56.79;99370.16;5073915;28;20065;-71
2021/12/29 04:26:01;;;;;;;61.28;32.30;;;;;;;6.00;57.23;99377.44;5074976;28;20072;-72
2021/12/29 04:28:29;;;;;;;60.58;32.10;;;;;;;5.92;57.48;99380.09;5073850;28;20072;-72
2021/12/29 04:31:05;;;;;;;65.45;31.52;;;;;;;5.79;57.83;99379.72;5056970;28;20150;-71
2021/12/29 04:33:33;;;;;;;64.55;32.13;;;;;;;6.04;57.30;99388.59;5074613;28;20061;-71
2021/12/29 04:35:59;;;;;;;58.05;31.35;;;;;;;6.15;57.06;99391.78;5073925;28;20056;-71
2021/12/29 04:38:26;;;;;;;57.25;31.27;;;;;;;6.14;56.79;99395.41;5073130;28;20079;-71
2021/12/29 04:40:54;;;;;;;55.08;30.00;;;;;;;6.01;57.15;99403.06;5072752;28;20052;-71
2021/12/29 04:43:23;;;;;;;60.28;30.50;;;;;;;6.05;57.27;99406.25;5074278;28;20049;-71
2021/12/29 04:45:49;;;;;;;56.28;28.85;;;;;;;6.15;57.17;99405.09;5073962;28;20132;-71
2021/12/29 04:48:17;;;;;;;59.83;31.48;;;;;;;6.15;57.06;99402.44;5073696;28;20040;-71
2021/12/29 04:51:03;;;;;;;59.70;29.98;;;;;;;6.26;56.58;99406.63;5072187;28;20068;-71
2021/12/29 04:53:29;;;;;;;56.10;28.60;;;;;;;6.20;56.79;99410.75;5073132;28;20131;-72
2021/12/29 04:55:56;;;;;;;62.00;31.25;;;;;;;6.17;56.84;99426.22;5073598;28;20449;-71
2021/12/29 04:58:23;;;;;;;64.32;29.83;;;;;;;5.92;57.74;99428.81;5071845;28;20068;-71
2021/12/29 05:00:51;;;;;;;59.13;30.35;;;;;;;5.53;58.93;99428.53;5073906;28;20118;-71
2021/12/29 05:03:19;;;;;;;61.00;29.98;;;;;;;5.97;57.88;99423.00;5073550;28;20063;-71
2021/12/29 05:08:27;;;;;;;58.65;28.85;;;;;;;5.67;58.50;99429.75;5074367;28;20064;-71
2021/12/29 05:11:00;;;;;;;54.47;28.38;;;;;;;5.46;58.97;99432.81;5074297;28;20057;-71
2021/12/29 05:13:28;;;;;;;59.75;29.75;;;;;;;5.72;58.69;99432.75;5056698;28;20112;-72
2021/12/29 05:15:55;;;;;;;56.80;29.10;;;;;;;5.77;58.45;99441.09;5073702;28;20451;-72
2021/12/29 05:18:24;;;;;;;56.70;28.25;;;;;;;6.00;57.36;99439.50;5072313;28;20049;-72
2021/12/29 05:20:51;;;;;;;56.53;28.13;;;;;;;6.08;57.43;99443.16;5067687;28;20143;-71
2021/12/29 05:23:18;;;;;;;63.33;28.17;;;;;;;6.21;56.81;99443.53;5072787;28;20131;-71
2021/12/29 05:25:45;;;;;;;61.67;28.00;;;;;;;6.22;56.59;99445.22;5072624;28;20561;-71
2021/12/29 05:28:13;;;;;;;51.78;27.73;;;;;;;6.22;56.65;99454.03;5073959;28;20166;-71
2021/12/29 05:30:40;;;;;;;60.00;27.88;;;;;;;6.08;57.12;99451.16;5073238;28;20048;-71
2021/12/29 05:33:07;;;;;;;56.25;28.13;;;;;;;6.14;57.03;99456.66;5073268;28;20045;-71
2021/12/29 05:35:34;;;;;;;54.10;27.25;;;;;;;6.19;56.93;99467.69;5072729;28;20131;-71
2021/12/29 05:38:00;;;;;;;57.60;27.83;;;;;;;6.28;56.59;99468.53;5072961;28;20131;-71
2021/12/29 05:40:27;;;;;;;51.97;25.25;;;;;;;6.36;56.13;99470.41;5073001;28;20051;-71
2021/12/29 05:42:55;;;;;;;44.22;24.25;;;;;;;6.35;56.39;99472.22;5073249;28;20064;-71
2021/12/29 05:45:22;;;;;;;55.70;24.35;;;;;;;6.36;56.47;99478.41;5073072;28;20143;-71
2021/12/29 05:47:48;;;;;;;47.50;23.52;;;;;;;6.27;56.88;99488.19;5072615;28;20075;-71
2021/12/29 05:50:18;;;;;;;57.35;26.30;;;;;;;6.27;57.40;99484.72;5072388;28;20044;-71
2021/12/29 05:52:45;;;;;;;48.45;24.02;;;;;;;6.07;57.99;99503.56;5074648;28;20120;-70
2021/12/29 05:55:11;;;;;;;46.63;22.95;;;;;;;6.19;57.74;99496.16;5077377;28;20052;-71
2021/12/29 05:57:38;;;;;;;53.25;22.83;;;;;;;6.23;57.50;99495.66;5076746;28;20472;-71
2021/12/29 06:00:08;;;;;;;54.22;23.92;;;;;;;6.00;57.79;99499.88;5076512;28;20120;-71
2021/12/29 06:02:35;;;;;;;53.53;22.85;;;;;;;5.92;58.87;99495.38;5077166;28;20100;-71
2021/12/29 06:05:02;;;;;;;46.35;22.95;;;;;;;6.12;58.33;99497.78;5076835;28;20392;-71
2021/12/29 06:07:28;;;;;;;44.28;22.60;;;;;;;6.31;57.48;99497.53;5075516;28;20453;-71
2021/12/29 06:09:55;;;;;;;48.08;24.08;;;;;;;6.31;57.25;99502.03;5075846;28;20123;-71
2021/12/29 06:12:21;;;;;;;44.60;21.20;;;;;;;6.55;56.32;99514.56;5074715;28;20048;-71
2021/12/29 06:14:48;;;;;;;50.95;22.20;;;;;;;6.59;56.76;99516.72;5076804;28;20468;-71
2021/12/29 06:17:15;;;;;;;50.92;22.63;;;;;;;6.27;57.27;99527.31;5076992;28;20488;-71
2021/12/29 06:19:41;;;;;;;51.60;24.38;;;;;;;6.34;57.16;99512.34;5077023;28;20052;-71
2021/12/29 06:22:11;;;;;;;50.40;22.20;;;;;;;6.27;57.47;99522.00;5076844;28;20041;-71
2021/12/29 06:24:39;;;;;;;56.65;22.75;;;;;;;6.31;57.36;99526.00;5075993;28;20104;-71
2021/12/29 06:27:06;;;;;;;51.47;22.90;;;;;;;6.43;56.90;99525.53;5076290;28;20146;-71
2021/12/29 06:29:33;;;;;;;45.03;22.75;;;;;;;6.18;57.57;99534.41;5076180;28;20049;-71
2021/12/29 06:32:00;;;;;;;51.92;23.65;;;;;;;6.14;57.64;99543.72;5074926;28;20135;-71
2021/12/29 06:34:27;;;;;;;54.70;24.13;;;;;;;6.24;57.78;99544.41;5075365;28;20048;-71
2021/12/29 06:36:54;;;;;;;47.42;23.08;;;;;;;6.34;57.39;99542.47;5075797;28;20040;-71
2021/12/29 06:39:20;;;;;;;55.42;23.23;;;;;;;6.12;57.96;99549.22;5075737;28;20072;-71
2021/12/29 06:41:47;;;;;;;49.58;22.02;;;;;;;6.07;57.91;99553.34;5075904;28;20545;-71
2021/12/29 06:44:14;;;;;;;45.80;22.40;;;;;;;6.20;57.95;99557.22;5075512;28;20116;-71
2021/12/29 06:46:40;;;;;;;46.88;21.15;;;;;;;5.94;58.49;99559.09;5075729;28;20075;-71
2021/12/29 06:49:07;;;;;;;49.90;23.30;;;;;;;6.12;58.17;99562.53;5073824;28;20109;-71
2021/12/29 06:51:34;;;;;;;58.80;22.48;;;;;;;6.02;58.35;99568.97;5074457;28;20045;-71
2021/12/29 06:54:00;;;;;;;51.53;22.17;;;;;;;6.01;58.30;99568.13;5072576;28;20082;-71
2021/12/29 06:56:27;;;;;;;53.22;22.65;;;;;;;6.12;58.28;99573.19;5072981;28;20532;-71
2021/12/29 06:58:53;;;;;;;54.08;23.38;;;;;;;6.10;58.08;99575.16;5072140;28;20485;-71
2021/12/29 07:01:20;;;;;;;51.08;21.73;;;;;;;6.20;57.81;99583.84;5073516;28;20066;-71
2021/12/29 07:03:46;;;;;;;55.03;23.05;;;;;;;5.99;58.72;99592.25;5073374;28;20048;-71
2021/12/29 07:06:13;;;;;;;49.05;23.10;;;;;;;5.95;58.68;99598.03;5072680;28;20045;-71
2021/12/29 07:08:40;;;;;;;57.63;23.73;;;;;;;6.31;57.89;99592.59;5054076;28;20132;-71
2021/12/29 07:11:06;;;;;;;48.67;21.17;;;;;;;6.46;57.34;99597.16;5054145;28;20063;-71
2021/12/29 07:13:33;;;;;;;46.58;21.83;;;;;;;6.48;57.04;99594.31;5064911;28;20055;-71
2021/12/29 07:15:59;;;;;;;48.13;22.85;;;;;;;6.44;57.23;99592.97;5073744;28;20119;-71
2021/12/29 07:18:26;;;;;;;53.10;24.92;;;;;;;6.49;57.43;99593.31;5072330;28;20052;-71
2021/12/29 07:20:52;;;;;;;51.55;23.23;;;;;;;6.57;56.99;99595.19;5072647;28;20115;-71
2021/12/29 07:23:19;;;;;;;48.45;23.80;;;;;;;6.46;57.04;99599.81;5071887;28;20163;-71
2021/12/29 07:25:45;;;;;;;60.88;25.00;;;;;;;6.36;57.46;99595.63;5073721;28;20132;-71
2021/12/29 07:28:11;;;;;;;55.20;24.58;;;;;;;6.41;57.57;99606.63;5072057;28;20064;-71
2021/12/29 07:30:38;;;;;;;52.55;24.77;;;;;;;6.43;57.59;99601.97;5073469;28;20048;-71
2021/12/29 07:33:04;;;;;;;57.80;23.77;;;;;;;6.33;58.21;99617.25;5073930;28;20052;-71
2021/12/29 07:35:31;;;;;;;55.80;24.05;;;;;;;6.22;58.36;99613.84;5072098;28;20547;-71
2021/12/29 07:37:57;;;;;;;57.58;25.70;;;;;;;6.46;57.37;99618.47;5073709;28;20500;-71
2021/12/29 07:40:24;;;;;;;61.50;22.55;;;;;;;6.20;57.96;99617.63;5072576;28;20112;-71
2021/12/29 07:42:50;;;;;;;59.78;24.30;;;;;;;5.95;59.20;99620.19;5073727;28;20055;-71
2021/12/29 07:45:18;;;;;;;55.47;23.90;;;;;;;6.01;59.36;99616.06;5072806;28;20056;-71
2021/12/29 07:47:47;;;;;;;62.35;24.05;;;;;;;6.39;58.16;99622.78;5072979;28;20055;-71
2021/12/29 07:50:16;;;;;;;53.63;24.45;;;;;;;6.31;58.29;99632.53;5071316;28;20127;-71
2021/12/29 07:52:56;;;;;;;61.85;23.35;;;;;;;6.50;57.70;99639.47;5072731;28;20071;-71
2021/12/29 07:55:22;;;;;;;54.50;23.67;;;;;;;6.62;57.30;99635.50;5070087;28;20127;-71
2021/12/29 07:57:49;;;;;;;52.22;22.98;;;;;;;6.58;57.41;99639.50;5070894;28;20536;-71
2021/12/29 08:00:16;;;;;;;53.65;21.77;;;;;;;6.46;57.97;99649.59;5071812;28;20104;-71
2021/12/29 08:02:44;;;;;;;50.03;21.73;;;;;;;6.31;58.64;99645.84;5069997;28;20048;-71
2021/12/29 08:05:12;;;;;;;59.47;23.02;;;;;;;6.35;57.92;99648.03;5072171;28;20422;-71
2021/12/29 08:07:45;;;;;;;55.75;23.77;;;;;;;6.56;57.83;99658.28;5072640;28;20040;-71
2021/12/29 08:10:13;;;;;;;51.28;22.50;;;;;;;6.59;57.24;99665.97;5072682;28;20100;-71
2021/12/29 08:12:39;;;;;;;57.13;21.70;;;;;;;6.55;57.44;99675.28;5071905;28;20037;-71
2021/12/29 08:15:07;;;;;;;51.15;23.23;;;;;;;6.52;57.99;99688.09;5072485;28;20119;-70
2021/12/29 08:17:33;;;;;;;51.65;22.27;;;;;;;6.08;59.38;99698.78;5072458;28;20127;-70
2021/12/29 08:20:00;;;;;;;57.22;22.27;;;;;;;5.96;60.25;99700.88;5072345;28;20507;-71
2021/12/29 08:22:27;;;;;;;59.15;23.10;;;;;;;5.47;61.43;99701.31;5069265;28;20132;-71
2021/12/29 08:24:54;;;;;;;57.63;23.00;;;;;;;6.03;59.97;99706.41;5072080;28;20068;-71
2021/12/29 08:27:21;;;;;;;55.20;22.70;;;;;;;6.70;58.36;99700.34;5072637;28;20048;-71
2021/12/29 08:29:48;;;;;;;53.08;22.02;;;;;;;6.68;58.13;99701.50;5071734;28;20041;-71
2021/12/29 08:32:14;;;;;;;54.70;21.08;;;;;;;6.74;57.79;99705.31;5072445;28;20128;-71
2021/12/29 08:34:41;;;;;;;44.97;20.92;;;;;;;7.01;56.79;99697.09;5071728;28;20224;-71
2021/12/29 08:37:08;;;;;;;51.45;22.17;;;;;;;6.74;57.62;99710.66;5070078;28;20059;-71
2021/12/29 08:39:34;;;;;;;44.38;21.35;;;;;;;6.98;56.81;99712.59;5070557;28;20119;-71
2021/12/29 08:42:00;;;;;;;54.58;21.25;;;;;;;7.03;56.74;99719.13;5071541;28;20132;-71
2021/12/29 08:44:27;;;;;;;53.60;21.58;;;;;;;7.08;56.54;99727.44;5070783;28;20044;-71
2021/12/29 08:46:53;;;;;;;54.17;20.50;;;;;;;6.74;57.67;99726.66;5072793;28;20123;-71
2021/12/29 08:49:21;;;;;;;51.03;20.23;;;;;;;6.35;58.69;99732.44;5072173;28;20135;-71
2021/12/29 08:51:48;;;;;;;58.90;21.25;;;;;;;6.36;59.24;99736.81;5069869;28;20056;-71
2021/12/29 08:54:14;;;;;;;48.00;22.00;;;;;;;6.01;60.25;99741.19;5075354;28;20127;-71
2021/12/29 08:56:41;;;;;;;55.22;24.63;;;;;;;6.26;59.72;99742.22;5076822;28;20233;-71
2021/12/29 08:59:07;;;;;;;67.80;23.05;;;;;;;6.82;58.18;99745.38;5075720;28;21281;-71
2021/12/29 09:01:34;;;;;;;52.60;22.52;;;;;;;6.92;57.80;99740.75;5076811;28;20044;-71
2021/12/29 09:04:01;;;;;;;54.20;21.67;;;;;;;6.87;58.00;99751.03;5071591;28;20055;-71
2021/12/29 09:06:28;;;;;;;51.55;21.42;;;;;;;6.90;57.63;99756.88;5070904;28;20044;-71
2021/12/29 09:08:54;;;;;;;59.00;23.33;;;;;;;6.78;58.24;99749.34;5070558;28;20044;-71
2021/12/29 09:11:21;;;;;;;53.08;21.38;;;;;;;7.15;57.38;99748.97;5071262;28;20045;-71
2021/12/29 09:13:47;;;;;;;53.33;22.65;;;;;;;7.04;57.53;99763.44;5071323;28;20450;-71
2021/12/29 09:16:14;;;;;;;45.92;20.40;;;;;;;7.13;56.87;99765.16;5071541;28;20045;-71
2021/12/29 09:18:41;;;;;;;52.15;21.80;;;;;;;7.24;57.07;99765.88;5070148;28;20047;-71
2021/12/29 09:21:13;;;;;;;46.90;20.45;;;;;;;7.04;57.02;99768.78;5070746;28;20201;-71
2021/12/29 09:23:40;;;;;;;49.53;21.45;;;;;;;6.99;57.93;99773.78;5071208;28;20068;-71
2021/12/29 09:26:08;;;;;;;62.40;21.35;;;;;;;7.23;56.93;99775.69;5071393;28;20102;-71
2021/12/29 09:28:35;;;;;;;51.70;22.02;;;;;;;7.17;57.50;99787.84;5076100;28;20049;-71
2021/12/29 09:31:02;;;;;;;49.70;21.30;;;;;;;7.24;57.12;99774.69;5076672;28;20072;-71
2021/12/29 09:33:28;;;;;;;47.63;20.48;;;;;;;7.37;56.54;99779.59;5076737;28;20072;-71
2021/12/29 09:36:01;;;;;;;46.17;20.08;;;;;;;7.16;57.30;99780.84;5075841;28;20472;-71
2021/12/29 09:38:32;;;;;;;43.80;20.48;;;;;;;6.49;58.96;99782.47;5077420;28;20124;-71
2021/12/29 09:40:59;;;;;;;39.13;16.30;;;;;;;6.96;58.45;99779.44;5068385;28;20072;-71
2021/12/29 09:43:25;;;;;;;53.20;21.73;;;;;;;6.71;59.10;99781.13;5074831;28;20544;-71
2021/12/29 09:45:51;;;;;;;53.30;22.45;;;;;;;7.10;57.83;99781.47;5074413;28;20167;-71
2021/12/29 09:48:19;;;;;;;51.10;21.98;;;;;;;7.32;57.06;99781.88;5075457;28;20453;-71
2021/12/29 09:50:47;;;;;;;52.05;21.20;;;;;;;7.10;57.60;99781.47;5075208;28;20044;-71
2021/12/29 09:53:14;;;;;;;45.85;21.02;;;;;;;6.87;58.50;99785.69;5075559;28;20075;-71
2021/12/29 09:55:41;;;;;;;52.70;22.42;;;;;;;7.03;58.37;99779.63;5075569;28;20067;-71
2021/12/29 09:58:07;;;;;;;50.60;23.80;;;;;;;7.04;58.26;99782.13;5074950;28;20132;-71
2021/12/29 10:00:39;;;;;;;52.47;22.38;;;;;;;7.07;57.73;99780.97;5075121;28;20117;-71
2021/12/29 10:03:09;;;;;;;49.33;22.95;;;;;;;6.98;58.32;99777.44;5075377;28;20051;-71
2021/12/29 10:05:38;;;;;;;57.45;23.70;;;;;;;6.88;58.99;99771.41;5074521;28;20102;-71
2021/12/29 10:08:08;;;;;;;50.53;21.52;;;;;;;6.97;58.49;99774.91;5075082;28;20528;-71
2021/12/29 10:10:38;;;;;;;47.78;22.77;;;;;;;6.54;60.02;99774.03;5074409;28;20132;-71
2021/12/29 10:13:07;;;;;;;48.50;23.00;;;;;;;6.71;59.76;99773.16;5075604;28;20070;-71
2021/12/29 10:15:37;;;;;;;48.15;22.08;;;;;;;6.62;59.42;99777.56;5076070;28;20048;-71
2021/12/29 10:18:14;;;;;;;45.22;23.27;;;;;;;7.07;58.74;99779.13;5073804;28;20131;-71
2021/12/29 10:20:51;;;;;;;65.57;22.90;;;;;;;7.01;58.69;99787.75;5057956;28;20559;-71
2021/12/29 10:23:22;;;;;;;51.50;22.80;;;;;;;7.09;58.60;99777.16;5073940;28;20054;-71
2021/12/29 10:25:51;;;;;;;59.47;23.45;;;;;;;6.67;59.38;99775.28;5074312;28;20532;-72
2021/12/29 10:28:27;;;;;;;57.60;23.10;;;;;;;7.14;57.99;99777.50;5074620;28;20064;-71
2021/12/29 10:31:00;;;;;;;45.17;23.10;;;;;;;7.28;58.05;99784.03;5072681;28;20041;-71
2021/12/29 10:33:36;;;;;;;54.28;22.75;;;;;;;7.55;56.83;99779.44;5066432;28;20076;-71
2021/12/29 10:36:15;;;;;;;53.70;23.38;;;;;;;7.39;57.03;99785.56;5056606;28;20076;-71
2021/12/29 10:38:44;;;;;;;54.10;23.98;;;;;;;7.45;57.08;99784.09;5054685;28;20634;-71
2021/12/29 10:41:11;;;;;;;51.45;23.60;;;;;;;7.54;56.92;99777.78;5049875;28;20144;-71
2021/12/29 10:43:48;;;;;;;56.85;23.85;;;;;;;7.23;57.34;99783.72;5046012;28;20072;-71
2021/12/29 10:46:20;;;;;;;53.72;24.65;;;;;;;7.55;57.06;99790.97;5079632;28;20071;-71
2021/12/29 10:48:49;;;;;;;48.05;23.75;;;;;;;7.60;56.65;99783.31;5075441;28;20040;-71
2021/12/29 10:51:16;;;;;;;51.10;23.00;;;;;;;7.70;56.66;99796.50;5074934;28;20442;-71
2021/12/29 10:53:44;;;;;;;48.92;23.67;;;;;;;7.77;56.40;99789.50;5056929;28;20064;-71
2021/12/29 10:56:23;;;;;;;53.78;24.70;;;;;;;7.53;57.48;99792.94;5076941;28;20099;-71
2021/12/29 10:58:53;;;;;;;50.07;24.13;;;;;;;7.39;57.75;99799.75;5075077;28;20063;-71
2021/12/29 11:01:22;;;;;;;55.58;23.55;;;;;;;7.30;58.61;99803.41;5091146;28;20274;-71
2021/12/29 11:03:58;;;;;;;48.50;23.90;;;;;;;7.31;58.38;99799.72;5095047;28;20040;-71
2021/12/29 11:06:26;;;;;;;57.85;24.63;;;;;;;7.19;58.93;99804.53;5094771;28;20082;-71
2021/12/29 11:08:55;;;;;;;57.42;25.33;;;;;;;7.55;57.50;99800.81;5077105;28;20126;-71
2021/12/29 11:11:37;;;;;;;55.08;25.65;;;;;;;7.63;57.42;99806.97;5095777;28;20449;-71
2021/12/29 11:14:09;;;;;;;;;;;;;;;7.01;59.30;99810.94;5076266;28;20485;-71
2021/12/29 11:16:36;;;;;;;56.72;26.65;;;;;;;7.18;58.68;99810.84;5090402;28;19959;-71
2021/12/29 11:19:03;;;;;;;63.40;26.60;;;;;;;7.26;58.71;99801.22;5093777;28;20064;-71
2021/12/29 11:21:35;;;;;;;66.03;27.10;;;;;;;7.12;59.36;99808.84;5093305;28;20353;-71
2021/12/29 11:24:14;;;;;;;61.40;27.30;;;;;;;6.99;59.94;99811.09;5088873;28;20044;-71
2021/12/29 11:26:41;;;;;;;63.10;25.60;;;;;;;6.96;59.85;99808.75;5092940;28;20071;-71
2021/12/29 11:29:12;;;;;;;64.05;27.15;;;;;;;7.34;58.57;99812.75;5078824;28;20556;-72
2021/12/29 11:31:48;;;;;;;42.60;20.48;;;;;;;7.26;58.74;99819.91;5050921;28;20788;-71
2021/12/29 11:34:26;;;;;;;59.83;26.40;;;;;;;7.35;58.65;99817.09;5046908;28;20072;-71
2021/12/29 11:37:06;;;;;;;65.72;27.00;;;;;;;7.01;59.27;99830.44;5064415;28;20055;-71
2021/12/29 11:39:36;;;;;;;63.95;28.27;;;;;;;7.07;60.26;99840.47;5071847;28;20448;-71
2021/12/29 11:42:03;;;;;;;58.33;26.38;;;;;;;7.66;57.89;99844.03;5032493;28;20075;-71